Orangefield, Texas
Current Conditions -  °F | °C
As of 10:35 PM on Wednesday 28 Jan 2015 (Local Time) from KORG Reporting Station
Moderate Fog Moderate Fog  
Wind Chill: 49°   Ceiling: 200
Heat Index: 49°   Visibility: 0.25mi
Dew Point: 49°   Wind: 0mph
Humidity: 100%   Direction: NA
Pressure: 30.2"   Gusts: NA
Location:  30.07°N, 93.86°W
Report Text: KORG 290435Z AUTO 00000KT 1/4SM FG VV002 10/10 A3020 RMK AO2 T00970097
Loading
Personal Weather Stations






























Interactive Weather Map New forecast layout! Learn more

10-Day Weather Forecast

Advertisements
Track Severe Weather on mobile